KMUT

Details ICAO KMUT
Name MUSCATINE MUNI
Region United States
Timezone America/Chicago (UTC-6.0)
Plans Departing 3
Arriving 2
Stats Elevation 547 ft / 167 m (AMSL)
Location 41.368187° -91.148667°
Runways 2
Magnetic Variation 1.094° W
Sunrise 2017-12-14 13:24:27 UTC / 2017-12-14 07:24:27 Local
Sunset 2017-12-14 22:37:08 UTC / 2017-12-14 16:37:08 Local
Advertisement - Login to hide

Runways

ID Width Length Bearing (true) Bearing (mag) Surface Threshold Offset Overrun Length
06 100 ft / 30 m 5,493 ft / 1,674 m 58.40° 59.49° Concrete 0 ft / 0 m 200 ft / 61 m
12 75 ft / 23 m 3,996 ft / 1,218 m 125.17° 126.26° Concrete 0 ft / 0 m 0 ft / 0 m
24 100 ft / 30 m 5,493 ft / 1,674 m 238.41° 239.50° Concrete 0 ft / 0 m 800 ft / 244 m
30 75 ft / 23 m 3,996 ft / 1,218 m 305.18° 306.27° Concrete 0 ft / 0 m 0 ft / 0 m

Map

Weather


0- 5 10 15 20 25 30 35+ Temperature / ° C

Clouds and Precipitation
Forecast for 2017-12-15 00:00 UTC. Updated 2 hours ago

Ground ~20,000 ft ~40,000 ft Winds

METAR

KMUT 142315Z AUTO 30005KT 10SM OVC028 M02/M09 A3011 RMK AO2

TAF

Not found

Frequencies

Recorded 119.77 MHz AWOS 3
Clearance 124.25 MHz QUAD CITY CLNC DEL
Unicom 122.70 MHz CTAF/UNICOM
Approach 118.20 MHz QUAD CITY APP/DEP
Warning: Do not use this data for real-world aviation or navigation. No guarantee of current accuracy is given.